createdAt,value
2023-04-15T00:01:43.834Z,55.19
2023-04-15T00:04:13.721Z,55.73
2023-04-15T00:06:43.641Z,55.86
2023-04-15T00:09:14.031Z,56.23
2023-04-15T00:11:43.849Z,56.19
2023-04-15T00:14:14.434Z,56.36
2023-04-15T00:16:44.377Z,56.61
2023-04-15T00:19:14.323Z,56.87
2023-04-15T00:21:43.930Z,56.76
2023-04-15T00:24:13.570Z,57.00
2023-04-15T00:26:43.703Z,57.38
2023-04-15T00:29:13.614Z,57.69
2023-04-15T00:31:43.499Z,58.06
2023-04-15T00:34:13.956Z,57.96
2023-04-15T00:36:45.780Z,58.33
2023-04-15T00:39:17.378Z,58.02
2023-04-15T00:41:47.742Z,58.13
2023-04-15T00:44:18.858Z,58.84
2023-04-15T00:46:51.750Z,58.76
2023-04-15T00:49:21.955Z,58.76
2023-04-15T00:51:52.374Z,59.57
2023-04-15T00:54:23.254Z,59.60
2023-04-15T00:56:53.141Z,59.57
2023-04-15T00:59:23.101Z,59.94
2023-04-15T01:01:53.150Z,59.83
2023-04-15T01:04:23.181Z,61.03
2023-04-15T01:06:53.069Z,60.68
2023-04-15T01:09:22.965Z,60.88
2023-04-15T01:11:53.771Z,60.91
2023-04-15T01:14:23.276Z,61.09
2023-04-15T01:16:54.736Z,60.86
2023-04-15T01:19:24.527Z,61.01
2023-04-15T01:21:54.991Z,61.50
2023-04-15T01:24:27.209Z,62.41
2023-04-15T01:26:57.025Z,62.29
2023-04-15T01:29:27.488Z,62.66
2023-04-15T01:31:58.126Z,62.85
2023-04-15T01:34:29.440Z,63.34
2023-04-15T01:36:59.539Z,63.25
2023-04-15T01:39:29.453Z,63.08
2023-04-15T01:41:59.265Z,63.46
2023-04-15T01:44:29.058Z,63.05
2023-04-15T01:46:59.033Z,63.89
2023-04-15T01:49:29.123Z,64.29
2023-04-15T01:51:58.997Z,64.09
2023-04-15T01:54:28.488Z,64.46
2023-04-15T01:56:58.797Z,64.43
2023-04-15T01:59:28.587Z,64.43
2023-04-15T02:01:58.838Z,64.47
2023-04-15T02:04:29.474Z,65.64
2023-04-15T02:07:01.724Z,65.64
2023-04-15T02:12:02.065Z,65.19
2023-04-15T02:14:32.232Z,65.04
2023-04-15T02:17:03.726Z,65.21
2023-04-15T02:19:34.067Z,64.81
2023-04-15T02:22:08.469Z,65.30
2023-04-15T02:24:38.558Z,65.16
2023-04-15T02:27:08.461Z,64.71
2023-04-15T02:29:38.312Z,65.37
2023-04-15T02:32:11.983Z,65.33
2023-04-15T02:34:42.869Z,65.25
2023-04-15T02:37:14.275Z,65.46
2023-04-15T02:39:44.082Z,65.79
2023-04-15T02:42:14.032Z,65.87
2023-04-15T02:44:44.418Z,66.75
2023-04-15T02:50:40.510Z,66.72
2023-04-15T02:53:11.256Z,67.66
2023-04-15T02:55:42.765Z,67.83
2023-04-15T02:58:13.171Z,67.85
2023-04-15T03:00:42.986Z,68.48
2023-04-15T03:03:15.199Z,68.48
2023-04-15T03:05:45.871Z,68.54
2023-04-15T03:08:15.877Z,68.54
2023-04-15T03:10:45.713Z,68.35
2023-04-15T03:13:15.945Z,68.73
2023-04-15T03:15:48.407Z,68.87
2023-04-15T03:18:18.115Z,68.41
2023-04-15T03:20:48.171Z,69.31
2023-04-15T03:23:18.206Z,69.38
2023-04-15T03:25:48.222Z,68.92
2023-04-15T03:28:18.049Z,69.20
2023-04-15T03:30:48.175Z,69.12
2023-04-15T03:33:18.081Z,69.09
2023-04-15T03:35:47.979Z,70.46
2023-04-15T03:38:17.920Z,70.23
2023-04-15T03:40:48.546Z,70.23
2023-04-15T03:43:18.504Z,70.37
2023-04-15T03:45:48.296Z,70.26
2023-04-15T03:48:18.522Z,70.21
2023-04-15T03:50:48.456Z,70.73
2023-04-15T03:53:18.597Z,70.52
2023-04-15T03:55:48.486Z,70.85
2023-04-15T03:58:18.778Z,70.28
2023-04-15T04:00:48.616Z,71.41
2023-04-15T04:03:19.057Z,71.72
2023-04-15T04:05:49.328Z,71.29
2023-04-15T04:08:19.689Z,71.44
2023-04-15T04:10:49.561Z,71.72
2023-04-15T04:13:19.712Z,71.59
2023-04-15T04:15:49.584Z,71.82
2023-04-15T04:18:19.106Z,72.77
2023-04-15T04:20:49.053Z,72.30
2023-04-15T04:23:19.026Z,72.91
2023-04-15T04:25:48.926Z,73.03
2023-04-15T04:28:18.811Z,73.03
2023-04-15T04:30:48.617Z,72.54
2023-04-15T04:33:18.732Z,73.25
2023-04-15T04:35:48.536Z,73.17
2023-04-15T04:38:18.057Z,73.41
2023-04-15T04:40:48.277Z,73.86
2023-04-15T04:43:18.241Z,74.33
2023-04-15T04:45:47.910Z,74.27
2023-04-15T04:48:18.242Z,73.97
2023-04-15T04:50:48.066Z,74.23
2023-04-15T04:53:18.298Z,73.74
2023-04-15T04:55:48.253Z,73.85
2023-04-15T04:58:17.782Z,74.32
2023-04-15T05:00:47.810Z,73.36
2023-04-15T05:03:17.851Z,73.33
2023-04-15T05:05:49.258Z,74.37
2023-04-15T05:08:19.022Z,74.34
2023-04-15T05:10:49.263Z,74.11
2023-04-15T05:13:19.352Z,74.03
2023-04-15T05:15:49.492Z,74.21
2023-04-15T05:18:19.330Z,74.66
2023-04-15T05:20:50.164Z,75.17
2023-04-15T05:23:20.067Z,75.03
2023-04-15T05:25:50.212Z,75.03
2023-04-15T05:28:20.183Z,75.25
2023-04-15T05:30:50.178Z,75.43
2023-04-15T05:33:20.084Z,74.87
2023-04-15T05:35:50.458Z,74.98
2023-04-15T05:38:20.145Z,75.72
2023-04-15T05:40:50.295Z,75.75
2023-04-15T05:43:20.707Z,74.98
2023-04-15T05:45:50.602Z,75.44
2023-04-15T05:48:20.330Z,75.14
2023-04-15T05:50:50.144Z,74.85
2023-04-15T05:53:20.177Z,74.80
2023-04-15T05:55:50.337Z,75.77
2023-04-15T05:58:20.075Z,75.77
2023-04-15T06:00:50.008Z,75.81
2023-04-15T06:03:20.061Z,75.35
2023-04-15T06:05:49.920Z,75.80
2023-04-15T06:08:19.734Z,76.46
2023-04-15T06:10:49.669Z,76.46
2023-04-15T06:13:19.237Z,75.17
2023-04-15T06:15:49.512Z,74.92
2023-04-15T06:18:20.129Z,74.62
2023-04-15T06:20:50.131Z,74.40
2023-04-15T06:23:20.038Z,74.70
2023-04-15T06:25:49.869Z,73.96
2023-04-15T06:28:19.428Z,73.48
2023-04-15T06:30:49.349Z,73.19
2023-04-15T06:33:19.155Z,73.18
2023-04-15T06:35:49.694Z,73.35
2023-04-15T06:38:19.251Z,73.19
2023-04-15T06:40:49.394Z,73.47
2023-04-15T06:43:19.687Z,73.10
2023-04-15T06:45:49.512Z,73.01
2023-04-15T06:48:19.285Z,73.54
2023-04-15T06:50:50.145Z,73.78
2023-04-15T06:53:20.569Z,73.09
2023-04-15T06:55:50.969Z,72.59
2023-04-15T06:58:21.118Z,72.09
2023-04-15T07:00:52.121Z,71.73
2023-04-15T07:03:22.410Z,71.63
2023-04-15T07:05:52.709Z,72.18
2023-04-15T07:08:22.635Z,71.50
2023-04-15T07:10:52.471Z,71.44
2023-04-15T07:13:22.399Z,71.48
2023-04-15T07:15:52.209Z,71.06
2023-04-15T07:18:22.205Z,70.50
2023-04-15T07:20:52.694Z,68.33
2023-04-15T07:23:22.574Z,68.33
2023-04-15T07:25:52.370Z,68.17
2023-04-15T07:28:22.170Z,67.14
2023-04-15T07:30:52.413Z,66.92
2023-04-15T07:33:22.220Z,66.60
2023-04-15T07:35:52.093Z,66.00
2023-04-15T07:38:21.676Z,66.47
2023-04-15T07:40:51.632Z,66.04
2023-04-15T07:43:21.997Z,65.96
2023-04-15T07:45:52.175Z,64.72
2023-04-15T07:48:22.091Z,65.47
2023-04-15T07:50:52.769Z,64.87
2023-04-15T07:53:23.055Z,64.90
2023-04-15T07:55:52.870Z,64.38
2023-04-15T07:58:22.986Z,63.34
2023-04-15T08:00:55.153Z,63.28
2023-04-15T08:03:25.037Z,63.37
2023-04-15T08:05:55.169Z,63.37
2023-04-15T08:08:25.426Z,63.45
2023-04-15T08:10:55.304Z,62.10
2023-04-15T08:13:25.124Z,62.68
2023-04-15T08:16:16.087Z,62.04
2023-04-15T08:18:46.649Z,62.04
2023-04-15T08:21:17.639Z,61.57
2023-04-15T08:23:50.073Z,61.15
2023-04-15T08:26:21.257Z,60.71
2023-04-15T08:28:51.757Z,60.71
2023-04-15T08:31:22.251Z,60.88
2023-04-15T08:33:53.438Z,59.13
2023-04-15T08:36:23.280Z,59.13
2023-04-15T08:38:53.112Z,58.99
2023-04-15T08:41:25.327Z,59.43
2023-04-15T08:44:04.155Z,57.59
2023-04-15T08:46:35.025Z,57.37
2023-04-15T08:49:07.094Z,57.46
2023-04-15T08:51:37.620Z,57.33
2023-04-15T08:54:13.975Z,56.96
2023-04-15T08:56:43.873Z,57.62
2023-04-15T08:59:13.962Z,57.50
2023-04-15T09:01:44.425Z,56.82
2023-04-15T09:04:15.220Z,56.85
2023-04-15T09:06:44.869Z,56.36
2023-04-15T09:09:14.886Z,56.26
2023-04-15T09:11:44.705Z,56.21
2023-04-15T09:14:14.517Z,56.01
2023-04-15T09:17:03.902Z,56.33
2023-04-15T09:19:36.522Z,55.89
2023-04-15T09:22:08.179Z,55.29
2023-04-15T09:24:42.174Z,55.02
2023-04-15T09:27:12.214Z,55.51
2023-04-15T09:29:43.244Z,55.51
2023-04-15T09:32:17.061Z,55.00
2023-04-15T09:34:47.994Z,55.82
2023-04-15T09:37:31.710Z,54.33
2023-04-15T09:39:52.974Z,53.43
2023-04-15T09:42:26.710Z,54.33
2023-04-15T09:44:56.663Z,54.87
2023-04-15T09:47:33.068Z,54.03
2023-04-15T09:50:03.523Z,54.28
2023-04-15T09:52:33.552Z,54.08
2023-04-15T09:55:03.105Z,53.95
2023-04-15T09:57:41.145Z,53.10
2023-04-15T10:00:14.079Z,51.94
2023-04-15T10:02:44.414Z,52.15
2023-04-15T10:05:17.945Z,51.82
2023-04-15T10:07:48.301Z,51.87
2023-04-15T10:10:19.014Z,51.04
2023-04-15T10:12:50.554Z,51.04
2023-04-15T10:15:20.663Z,50.68
2023-04-15T10:17:51.838Z,50.53
2023-04-15T10:20:23.576Z,51.16
2023-04-15T10:22:53.976Z,50.57
2023-04-15T10:25:24.648Z,52.21
2023-04-15T10:27:54.493Z,50.88
2023-04-15T10:30:24.580Z,49.82
2023-04-15T10:32:54.869Z,50.39
2023-04-15T10:35:25.477Z,49.95
2023-04-15T10:37:55.271Z,49.67
2023-04-15T10:40:34.717Z,48.38
2023-04-15T10:43:05.395Z,48.40
2023-04-15T10:45:37.854Z,50.06
2023-04-15T10:48:10.016Z,49.29
2023-04-15T10:50:39.807Z,48.89
2023-04-15T10:53:11.859Z,48.90
2023-04-15T10:55:41.790Z,49.79
2023-04-15T10:58:12.308Z,49.56
2023-04-15T11:00:43.626Z,49.08
2023-04-15T11:03:13.360Z,49.17
2023-04-15T11:05:52.224Z,49.68
2023-04-15T11:08:23.855Z,48.32
2023-04-15T11:10:54.880Z,47.61
2023-04-15T11:13:27.101Z,47.61
2023-04-15T11:16:01.618Z,47.99
2023-04-15T11:18:33.016Z,47.83
2023-04-15T11:21:05.987Z,48.24
2023-04-15T11:23:47.245Z,47.97
2023-04-15T11:26:17.064Z,47.11
2023-04-15T11:28:48.050Z,47.98
2023-04-15T11:31:20.274Z,47.37
2023-04-15T11:34:02.984Z,46.43
2023-04-15T11:36:33.081Z,46.58
2023-04-15T11:39:02.916Z,46.71
2023-04-15T11:41:32.893Z,46.35
2023-04-15T11:44:03.067Z,47.47
2023-04-15T11:46:33.153Z,47.51
2023-04-15T11:49:04.742Z,46.69
2023-04-15T11:51:35.465Z,46.80
2023-04-15T11:54:06.552Z,46.08
2023-04-15T11:56:36.521Z,44.81
2023-04-15T11:59:06.045Z,43.59
2023-04-15T12:01:41.278Z,44.28
2023-04-15T12:04:15.952Z,44.17
2023-04-15T12:06:46.867Z,44.94
2023-04-15T12:09:17.532Z,44.54
2023-04-15T12:11:54.107Z,44.87
2023-04-15T12:14:26.735Z,44.39
2023-04-15T12:17:00.218Z,43.17
2023-04-15T12:19:39.084Z,42.95
2023-04-15T12:22:13.242Z,43.24
2023-04-15T12:24:44.338Z,44.15
2023-04-15T12:27:16.252Z,44.15
2023-04-15T12:29:46.140Z,43.87
2023-04-15T12:32:17.612Z,42.96
2023-04-15T12:34:52.650Z,44.72
2023-04-15T12:37:23.002Z,44.77
2023-04-15T12:39:53.965Z,45.39
2023-04-15T12:42:24.066Z,43.79
2023-04-15T12:44:54.076Z,43.33
2023-04-15T12:47:23.906Z,43.06
2023-04-15T12:49:53.711Z,43.34
2023-04-15T12:52:24.376Z,44.52
2023-04-15T12:54:54.866Z,45.50
2023-04-15T12:57:24.667Z,43.42
2023-04-15T12:59:54.829Z,43.21
2023-04-15T13:02:26.899Z,43.24
2023-04-15T13:04:56.994Z,43.74
2023-04-15T13:07:27.050Z,43.59
2023-04-15T13:09:56.854Z,45.00
2023-04-15T13:12:27.013Z,44.59
2023-04-15T13:14:56.862Z,44.88
2023-04-15T13:17:27.072Z,44.55
2023-04-15T13:19:57.080Z,43.99
2023-04-15T13:22:27.143Z,43.19
2023-04-15T13:24:56.987Z,42.14
2023-04-15T13:27:27.498Z,42.48
2023-04-15T13:29:57.582Z,44.74
2023-04-15T13:32:27.374Z,44.74
2023-04-15T13:34:57.236Z,45.84
2023-04-15T13:37:31.201Z,44.65
2023-04-15T13:40:01.095Z,44.72
2023-04-15T13:42:30.960Z,44.05
2023-04-15T13:45:00.906Z,44.05
2023-04-15T13:47:30.722Z,45.27
2023-04-15T13:50:00.308Z,45.27
2023-04-15T13:52:30.074Z,46.34
2023-04-15T13:55:07.210Z,45.81
2023-04-15T13:57:32.127Z,44.65
2023-04-15T14:00:02.305Z,45.14
2023-04-15T14:02:33.934Z,45.96
2023-04-15T14:05:03.845Z,46.53
2023-04-15T14:07:33.691Z,46.57
2023-04-15T14:10:03.644Z,47.88
2023-04-15T14:12:33.264Z,47.88
2023-04-15T14:15:03.153Z,49.27
2023-04-15T14:17:34.009Z,48.22
2023-04-15T14:20:03.985Z,48.46
2023-04-15T14:22:34.226Z,47.07
2023-04-15T14:25:04.076Z,47.07
2023-04-15T14:27:33.932Z,47.85
2023-04-15T14:30:03.894Z,47.84
2023-04-15T14:32:33.769Z,48.35
2023-04-15T14:35:04.304Z,47.85
2023-04-15T14:37:34.297Z,47.44
2023-04-15T14:40:07.458Z,47.78
2023-04-15T14:42:38.251Z,47.25
2023-04-15T14:45:08.383Z,49.11
2023-04-15T14:47:38.366Z,49.58
2023-04-15T14:50:10.494Z,50.34
2023-04-15T14:52:40.421Z,50.34
2023-04-15T14:55:12.668Z,50.81
2023-04-15T14:57:43.938Z,50.98
2023-04-15T15:00:16.347Z,51.86
2023-04-15T15:02:47.525Z,52.39
2023-04-15T15:05:17.534Z,53.38
2023-04-15T15:07:47.793Z,53.93
2023-04-15T15:10:17.305Z,54.12
2023-04-15T15:12:48.812Z,54.92
2023-04-15T15:15:28.598Z,55.07
2023-04-15T15:17:50.940Z,56.85
2023-04-15T15:20:20.640Z,55.44
2023-04-15T15:22:50.953Z,56.25
2023-04-15T15:25:20.945Z,56.36
2023-04-15T15:27:50.981Z,56.51
2023-04-15T15:30:20.815Z,57.06
2023-04-15T15:32:50.802Z,58.02
2023-04-15T15:35:22.365Z,58.02
2023-04-15T15:37:52.201Z,57.54
2023-04-15T15:40:22.135Z,56.95
2023-04-15T15:42:51.928Z,57.49
2023-04-15T15:45:21.781Z,58.70
2023-04-15T15:47:52.313Z,59.06
2023-04-15T15:50:22.175Z,59.06
2023-04-15T15:52:52.242Z,59.65
2023-04-15T15:55:22.044Z,59.40
2023-04-15T15:57:51.882Z,59.60
2023-04-15T16:00:21.823Z,60.15
2023-04-15T16:05:23.132Z,59.95
2023-04-15T16:07:52.936Z,59.97
2023-04-15T16:10:22.774Z,60.29
2023-04-15T16:15:29.110Z,59.54
2023-04-15T16:17:59.060Z,59.70
2023-04-15T16:20:29.020Z,59.88
2023-04-15T16:23:00.072Z,60.13
2023-04-15T16:25:30.261Z,60.88
2023-04-15T16:28:08.611Z,60.62
2023-04-15T16:30:31.752Z,61.42
2023-04-15T16:33:01.884Z,62.02
2023-04-15T16:35:33.376Z,62.02
2023-04-15T16:38:03.564Z,61.49
2023-04-15T16:40:33.495Z,61.61
2023-04-15T16:43:07.001Z,61.87
2023-04-15T16:45:36.896Z,60.79
2023-04-15T16:48:08.402Z,61.23
2023-04-15T16:50:38.692Z,62.28
2023-04-15T16:53:08.792Z,62.03
2023-04-15T16:55:38.578Z,62.07
2023-04-15T16:58:09.555Z,62.32
2023-04-15T17:00:39.533Z,63.15
2023-04-15T17:03:09.518Z,62.82
2023-04-15T17:05:39.924Z,62.92
2023-04-15T17:08:11.141Z,62.88
2023-04-15T17:10:41.586Z,63.61
2023-04-15T17:13:11.536Z,63.59
2023-04-15T17:15:41.669Z,64.50
2023-04-15T17:18:12.124Z,64.70
2023-04-15T17:20:42.033Z,64.56
2023-04-15T17:23:12.383Z,64.57
2023-04-15T17:25:42.243Z,64.69
2023-04-15T17:28:12.074Z,64.97
2023-04-15T17:30:41.992Z,65.83
2023-04-15T17:33:55.929Z,66.04
2023-04-15T17:35:43.618Z,66.30
2023-04-15T17:38:13.219Z,66.43
2023-04-15T17:40:43.341Z,65.82
2023-04-15T17:43:13.145Z,67.32
2023-04-15T17:45:43.738Z,67.71
2023-04-15T17:48:13.422Z,67.03
2023-04-15T17:50:43.274Z,67.03
2023-04-15T17:53:14.734Z,68.00
2023-04-15T17:55:44.605Z,68.47
2023-04-15T17:58:14.217Z,68.23
2023-04-15T18:00:44.115Z,67.10
2023-04-15T18:03:14.490Z,67.31
2023-04-15T18:05:44.520Z,67.54
2023-04-15T18:08:14.325Z,66.48
2023-04-15T18:10:45.751Z,67.64
2023-04-15T18:13:15.950Z,68.26
2023-04-15T18:15:47.610Z,68.88
2023-04-15T18:18:17.340Z,69.99
2023-04-15T18:20:47.434Z,69.61
2023-04-15T18:23:17.360Z,69.93
2023-04-15T18:25:47.254Z,70.21
2023-04-15T18:28:16.802Z,69.75
2023-04-15T18:30:46.678Z,69.50
2023-04-15T18:33:16.807Z,70.49
2023-04-15T18:35:48.125Z,70.49
2023-04-15T18:38:18.143Z,70.42
2023-04-15T18:40:48.245Z,69.48
2023-04-15T18:43:18.124Z,69.60
2023-04-15T18:45:48.066Z,69.98
2023-04-15T18:48:17.873Z,70.50
2023-04-15T18:50:48.258Z,70.30
2023-04-15T18:53:18.154Z,71.82
2023-04-15T18:55:48.005Z,72.52
2023-04-15T18:58:17.987Z,72.71
2023-04-15T19:00:47.883Z,73.33
2023-04-15T19:03:17.877Z,73.02
2023-04-15T19:05:48.190Z,72.98
2023-04-15T19:08:17.769Z,74.78
2023-04-15T19:10:47.611Z,74.48
2023-04-15T19:13:18.866Z,75.43
2023-04-15T19:15:48.716Z,74.82
2023-04-15T19:18:18.223Z,75.53
2023-04-15T19:20:49.755Z,75.61
2023-04-15T19:23:19.755Z,75.89
2023-04-15T19:25:49.634Z,75.26
2023-04-15T19:28:19.177Z,75.26
2023-04-15T19:30:49.327Z,75.33
2023-04-15T19:33:19.176Z,76.08
2023-04-15T19:35:49.938Z,77.07
2023-04-15T19:38:19.850Z,77.40
2023-04-15T19:40:50.577Z,76.90
2023-04-15T19:43:20.449Z,78.06
2023-04-15T19:45:52.193Z,77.83
2023-04-15T19:48:23.832Z,78.14
2023-04-15T19:50:54.115Z,79.25
2023-04-15T19:53:25.578Z,77.99
2023-04-15T19:55:55.465Z,78.05
2023-04-15T19:58:25.277Z,79.12
2023-04-15T20:00:55.089Z,79.92
2023-04-15T20:03:25.199Z,78.94
2023-04-15T20:05:55.135Z,79.01
2023-04-15T20:08:24.621Z,79.40
2023-04-15T20:10:54.601Z,79.00
2023-04-15T20:13:24.695Z,78.63
2023-04-15T20:15:54.571Z,78.58
2023-04-15T20:18:24.419Z,78.57
2023-04-15T20:20:54.246Z,78.57
2023-04-15T20:23:24.049Z,78.24
2023-04-15T20:25:53.933Z,77.87
2023-04-15T20:28:25.093Z,78.65
2023-04-15T20:30:55.345Z,78.00
2023-04-15T20:33:27.196Z,77.58
2023-04-15T20:35:57.075Z,77.58
2023-04-15T20:38:26.710Z,77.85
2023-04-15T20:40:57.821Z,77.91
2023-04-15T20:43:27.644Z,77.18
2023-04-15T20:46:00.204Z,76.70
2023-04-15T20:48:28.928Z,77.21
2023-04-15T20:50:59.047Z,77.10
2023-04-15T20:53:28.847Z,78.53
2023-04-15T20:56:00.242Z,79.25
2023-04-15T20:58:30.054Z,79.25
2023-04-15T21:01:01.956Z,78.90
2023-04-15T21:03:32.283Z,79.06
2023-04-15T21:06:02.285Z,79.32
2023-04-15T21:08:32.244Z,79.76
2023-04-15T21:11:02.381Z,78.34
2023-04-15T21:13:32.254Z,77.97
2023-04-15T21:16:02.129Z,78.30
2023-04-15T21:18:31.984Z,78.44
2023-04-15T21:21:03.222Z,78.65
2023-04-15T21:23:34.718Z,78.26
2023-04-15T21:26:06.555Z,77.83
2023-04-15T21:28:37.121Z,78.11
2023-04-15T21:31:07.194Z,78.63
2023-04-15T21:33:37.262Z,78.93
2023-04-15T21:36:08.238Z,78.47
2023-04-15T21:38:38.070Z,78.86
2023-04-15T21:41:09.711Z,78.08
2023-04-15T21:43:39.740Z,78.33
2023-04-15T21:46:22.539Z,78.17
2023-04-15T21:48:42.993Z,78.77
2023-04-15T21:51:12.955Z,78.65
2023-04-15T21:53:42.781Z,79.00
2023-04-15T21:56:12.596Z,79.14
2023-04-15T21:58:42.906Z,80.22
2023-04-15T22:01:12.711Z,79.17
2023-04-15T22:03:43.983Z,79.44
2023-04-15T22:06:13.794Z,78.93
2023-04-15T22:08:55.214Z,78.71
2023-04-15T22:11:30.367Z,78.39
2023-04-15T22:14:00.692Z,78.71
2023-04-15T22:16:30.254Z,79.80
2023-04-15T22:19:00.274Z,80.08
2023-04-15T22:21:30.058Z,80.08
2023-04-15T22:24:38.261Z,80.88
2023-04-15T22:26:31.314Z,80.44
2023-04-15T22:29:01.108Z,79.97
2023-04-15T22:31:31.150Z,79.77
2023-04-15T22:34:01.132Z,80.26
2023-04-15T22:36:31.812Z,79.87
2023-04-15T22:39:01.752Z,80.44
2023-04-15T22:41:31.534Z,80.11
2023-04-15T22:44:01.130Z,81.67
2023-04-15T22:46:31.198Z,81.59
2023-04-15T22:49:01.291Z,81.12
2023-04-15T22:51:31.437Z,81.14
2023-04-15T22:54:01.879Z,81.62
2023-04-15T22:56:31.703Z,81.18
2023-04-15T22:59:01.519Z,81.78
2023-04-15T23:01:32.173Z,80.48
2023-04-15T23:04:08.152Z,80.22
2023-04-15T23:06:33.676Z,80.30
2023-04-15T23:09:03.497Z,80.43
2023-04-15T23:11:33.364Z,80.30
2023-04-15T23:14:03.260Z,80.17
2023-04-15T23:16:33.131Z,80.17
2023-04-15T23:19:02.937Z,80.36
2023-04-15T23:21:33.031Z,81.03
2023-04-15T23:24:02.941Z,80.91
2023-04-15T23:26:32.887Z,81.13
2023-04-15T23:29:02.704Z,82.43
2023-04-15T23:31:32.202Z,82.40
2023-04-15T23:34:02.313Z,82.13
2023-04-15T23:36:32.212Z,80.79
2023-04-15T23:39:02.200Z,82.11
2023-04-15T23:41:31.930Z,83.15
2023-04-15T23:44:01.893Z,81.73
2023-04-15T23:46:31.728Z,82.53
2023-04-15T23:49:01.616Z,83.85
2023-04-15T23:51:31.481Z,83.13
2023-04-15T23:54:01.326Z,82.21
2023-04-15T23:56:31.697Z,82.61
2023-04-15T23:59:01.235Z,82.22
